Time;durP1;ratioP1;P1;durP2;ratioP2;P2;SDS_P1;SDS_P2;PMS_P1;PMS_P2;Temp;Humidity;BMP_temperature;BMP_pressure;BME280_temperature;BME280_humidity;BME280_pressure;Samples;Min_cycle;Max_cycle;Signal;HPM_P1;HPM_P2
2021/12/16 00:02:42;;;;;;;69.20;30.63;;;;;;;6.64;100.00;101783.72;5034362;28;20076;-76
2021/12/16 00:05:24;;;;;;;72.53;31.85;;;;;;;6.61;100.00;101786.31;5034362;28;20060;-76
2021/12/16 00:07:59;;;;;;;70.97;31.65;;;;;;;6.59;100.00;101795.19;5034525;28;20076;-76
2021/12/16 00:10:32;;;;;;;68.88;31.90;;;;;;;6.56;100.00;101803.09;5034243;28;20025;-76
2021/12/16 00:32:21;;;;;;;80.50;34.00;;;;;;;6.48;100.00;101799.47;5034325;28;19916;-76
2021/12/16 00:34:48;;;;;;;84.60;36.53;;;;;;;6.43;100.00;101803.81;5032753;28;20405;-76
2021/12/16 00:37:14;;;;;;;88.82;36.58;;;;;;;6.43;100.00;101806.47;5033612;28;20021;-76
2021/12/16 00:39:41;;;;;;;89.53;37.08;;;;;;;6.43;100.00;101798.53;5033691;28;20029;-76
2021/12/16 00:42:14;;;;;;;91.80;36.25;;;;;;;6.42;100.00;101799.38;5032360;28;20025;-76
2021/12/16 00:49:40;;;;;;;92.88;36.97;;;;;;;6.53;100.00;101803.06;5033512;28;20021;-76
2021/12/16 00:55:04;;;;;;;91.05;36.60;;;;;;;6.46;100.00;101806.53;5034160;28;20397;-76
2021/12/16 00:57:30;;;;;;;89.35;36.28;;;;;;;6.34;100.00;101800.19;5032195;28;20028;-76
2021/12/16 00:59:57;;;;;;;78.35;35.15;;;;;;;6.23;100.00;101802.72;5032686;28;20025;-76
2021/12/16 01:05:52;;;;;;;91.35;35.30;;;;;;;6.24;100.00;101806.25;5033318;28;20114;-76
2021/12/16 01:41:42;;;;;;;98.18;40.20;;;;;;;6.36;100.00;101816.13;5009614;28;20099;-76
2021/12/16 01:47:01;;;;;;;100.38;38.45;;;;;;;6.34;100.00;101820.53;4991457;28;20395;-76
2021/12/16 01:49:46;;;;;;;117.43;42.22;;;;;;;6.30;100.00;101822.25;5028265;28;20044;-76
2021/12/16 01:54:52;;;;;;;109.85;42.78;;;;;;;6.38;100.00;101817.03;5033083;28;20091;-77
2021/12/16 01:57:32;;;;;;;109.25;40.42;;;;;;;6.33;100.00;101819.66;5031481;28;20021;-76
2021/12/16 02:00:06;;;;;;;111.70;42.28;;;;;;;6.29;100.00;101808.97;5032740;28;20026;-76
2021/12/16 02:02:46;;;;;;;100.03;40.03;;;;;;;6.35;100.00;101814.34;5033155;28;20032;-76
2021/12/16 02:10:26;;;;;;;113.22;41.72;;;;;;;6.26;100.00;101820.44;5033102;28;20498;-76
2021/12/16 02:29:27;;;;;;;98.35;38.00;;;;;;;6.48;100.00;101826.00;5036276;28;20074;-76
2021/12/16 02:32:33;;;;;;;105.20;39.67;;;;;;;6.41;100.00;101825.03;5036114;28;20029;-76
2021/12/16 02:35:11;;;;;;;88.82;35.90;;;;;;;6.52;100.00;101838.41;5035669;28;20044;-76
2021/12/16 02:37:37;;;;;;;97.18;37.42;;;;;;;6.39;100.00;101831.22;5035752;28;20060;-77
2021/12/16 02:40:08;;;;;;;110.43;40.92;;;;;;;6.36;100.00;101835.59;5036110;28;20505;-76
2021/12/16 02:50:45;;;;;;;101.13;38.80;;;;;;;6.42;100.00;101857.75;5036869;28;20014;-76
2021/12/16 02:53:11;;;;;;;103.75;39.70;;;;;;;6.45;100.00;101849.84;5036065;28;20061;-76
2021/12/16 02:55:36;;;;;;;100.05;38.80;;;;;;;6.54;100.00;101855.28;5034920;28;20028;-76
2021/12/16 02:58:02;;;;;;;103.07;39.35;;;;;;;6.46;100.00;101854.28;5035836;28;20462;-76
2021/12/16 03:00:30;;;;;;;96.53;37.55;;;;;;;6.62;100.00;101847.41;5036254;28;20033;-76
2021/12/16 03:02:56;;;;;;;98.90;38.92;;;;;;;6.48;100.00;101844.56;5035424;28;20104;-76
2021/12/16 03:05:22;;;;;;;103.45;37.53;;;;;;;6.49;100.00;101849.03;5035437;28;20104;-76
2021/12/16 03:07:50;;;;;;;95.80;37.90;;;;;;;6.52;100.00;101850.81;5035619;28;20048;-76
2021/12/16 03:13:23;;;;;;;109.25;39.65;;;;;;;6.45;100.00;101852.50;5035690;28;20417;-77
2021/12/16 03:16:01;;;;;;;98.90;37.83;;;;;;;6.59;100.00;101847.38;5035257;28;20104;-76
2021/12/16 03:18:48;;;;;;;93.25;36.58;;;;;;;6.61;100.00;101853.59;5035074;28;20021;-77
2021/12/16 03:21:25;;;;;;;89.30;35.88;;;;;;;6.66;100.00;101850.97;5035481;28;20025;-77
2021/12/16 03:29:44;;;;;;;99.20;36.55;;;;;;;6.68;100.00;101849.22;5035379;28;20018;-76
2021/12/16 03:35:03;;;;;;;86.47;32.30;;;;;;;6.78;100.00;101850.22;5035485;28;20490;-76
2021/12/16 03:37:30;;;;;;;84.47;33.40;;;;;;;6.73;100.00;101860.78;5033522;28;20543;-76
2021/12/16 03:40:04;;;;;;;92.53;34.72;;;;;;;6.70;100.00;101855.47;5034678;28;20490;-76
2021/12/16 03:42:51;;;;;;;92.80;34.75;;;;;;;6.81;100.00;101855.56;5035034;28;20043;-76
2021/12/16 03:48:41;;;;;;;93.47;34.25;;;;;;;6.76;100.00;101850.22;5034596;28;20056;-76
2021/12/16 03:51:32;;;;;;;90.00;34.35;;;;;;;6.75;100.00;101850.19;5034857;28;20018;-76
2021/12/16 03:54:06;;;;;;;90.40;36.45;;;;;;;6.68;100.00;101859.84;5034093;28;20037;-76
2021/12/16 03:56:32;;;;;;;102.90;37.38;;;;;;;6.75;100.00;101851.06;5034998;28;20025;-76
2021/12/16 03:58:58;;;;;;;110.15;38.45;;;;;;;6.66;100.00;101843.91;5034658;28;20096;-76
2021/12/16 04:01:27;;;;;;;99.50;37.72;;;;;;;6.71;100.00;101851.91;5034584;28;20021;-76
2021/12/16 04:03:53;;;;;;;95.93;36.65;;;;;;;6.65;100.00;101849.22;5033058;28;20025;-76
2021/12/16 04:06:20;;;;;;;96.00;37.33;;;;;;;6.66;100.00;101851.88;5034502;28;20029;-75
2021/12/16 04:08:46;;;;;;;94.93;37.78;;;;;;;6.74;100.00;101844.00;5034664;28;20018;-76
2021/12/16 04:11:20;;;;;;;108.47;39.45;;;;;;;6.70;100.00;101847.50;5035005;28;20390;-76
2021/12/16 04:13:54;;;;;;;108.80;41.20;;;;;;;6.68;100.00;101854.53;5034544;28;20032;-76
2021/12/16 04:16:28;;;;;;;;;;;;;;;6.61;100.00;101848.28;5034535;28;20028;-76
2021/12/16 04:18:54;;;;;;;101.57;38.80;;;;;;;6.76;100.00;101852.88;5032686;28;19916;-76
2021/12/16 04:21:21;;;;;;;119.22;41.75;;;;;;;6.70;100.00;101847.50;5034178;28;20042;-76
2021/12/16 04:23:48;;;;;;;129.18;44.22;;;;;;;6.67;100.00;101853.66;5033916;28;20100;-76
2021/12/16 04:26:15;;;;;;;127.93;43.80;;;;;;;6.64;100.00;101863.34;5033862;28;20044;-76
2021/12/16 04:28:42;;;;;;;123.50;42.80;;;;;;;6.70;100.00;101866.09;5034014;28;20025;-76
2021/12/16 04:31:09;;;;;;;115.38;42.25;;;;;;;6.65;100.00;101862.50;5032558;28;20028;-76
2021/12/16 04:33:39;;;;;;;114.97;40.20;;;;;;;6.74;100.00;101867.00;5033819;28;20084;-77
2021/12/16 04:36:07;;;;;;;114.45;40.22;;;;;;;6.76;100.00;101866.13;5033536;28;20057;-77
2021/12/16 04:38:32;;;;;;;118.70;40.75;;;;;;;6.75;100.00;101867.00;5034031;28;20017;-77
2021/12/16 04:40:58;;;;;;;117.22;40.10;;;;;;;6.73;100.00;101870.50;5033641;28;20084;-76
2021/12/16 04:43:33;;;;;;;111.90;41.00;;;;;;;6.74;100.00;101870.53;5033735;28;20457;-75
2021/12/16 04:45:58;;;;;;;114.35;41.67;;;;;;;6.79;100.00;101863.53;5032714;28;20096;-75
2021/12/16 04:48:23;;;;;;;116.18;41.05;;;;;;;6.65;100.00;101873.09;5034180;28;20018;-75
2021/12/16 04:50:49;;;;;;;115.85;41.33;;;;;;;6.67;100.00;101874.00;5033770;28;20057;-76
2021/12/16 04:53:15;;;;;;;116.30;42.35;;;;;;;6.67;100.00;101874.00;5033412;28;20052;-76
2021/12/16 04:55:40;;;;;;;117.90;41.95;;;;;;;6.75;100.00;101877.63;5033647;28;20469;-76
2021/12/16 04:58:06;;;;;;;108.47;39.67;;;;;;;6.79;100.00;101867.94;5033553;28;20029;-77
2021/12/16 05:00:31;;;;;;;108.40;40.53;;;;;;;6.76;100.00;101868.78;5033663;28;20022;-76
2021/12/16 05:02:57;;;;;;;115.15;39.28;;;;;;;6.67;100.00;101879.31;5033360;28;20056;-76
2021/12/16 05:05:22;;;;;;;102.28;39.22;;;;;;;6.70;100.00;101889.97;5033291;28;20150;-76
2021/12/16 05:07:47;;;;;;;114.57;39.75;;;;;;;6.72;100.00;101882.91;5032739;28;20029;-77
2021/12/16 05:10:14;;;;;;;105.82;38.28;;;;;;;6.68;100.00;101892.59;5031931;28;20017;-77
2021/12/16 05:12:44;;;;;;;112.30;38.78;;;;;;;6.67;100.00;101901.44;5033527;28;20021;-77
2021/12/16 05:15:14;;;;;;;107.53;38.42;;;;;;;6.69;100.00;101898.81;5033601;28;20025;-77
2021/12/16 05:17:43;;;;;;;100.93;36.80;;;;;;;6.81;100.00;101898.94;5033153;28;20029;-77
2021/12/16 05:20:17;;;;;;;109.47;39.13;;;;;;;6.76;100.00;101900.66;5031821;28;20025;-77
2021/12/16 05:28:03;;;;;;;106.55;39.47;;;;;;;6.80;100.00;101897.16;5033559;28;20021;-77
2021/12/16 05:30:29;;;;;;;99.13;38.00;;;;;;;6.74;100.00;101907.72;5032952;28;20030;-77
2021/12/16 05:32:55;;;;;;;98.20;36.65;;;;;;;6.78;100.00;101917.47;5032960;28;20032;-77
2021/12/16 05:35:22;;;;;;;98.93;35.60;;;;;;;6.78;100.00;101919.25;5031953;28;20026;-77
2021/12/16 05:37:48;;;;;;;95.55;35.78;;;;;;;6.79;100.00;101907.75;5032877;28;20064;-76
2021/12/16 05:40:17;;;;;;;103.28;36.50;;;;;;;6.67;100.00;101905.88;5032866;28;20030;-77
2021/12/16 05:42:42;;;;;;;97.95;37.47;;;;;;;6.85;100.00;101917.56;5033168;28;20028;-77
2021/12/16 05:45:10;;;;;;;100.55;37.50;;;;;;;6.71;100.00;101928.91;5055424;23;20038;-85
2021/12/16 05:47:44;;;;;;;100.82;36.50;;;;;;;6.92;100.00;101922.09;5035575;28;20033;-84
2021/12/16 05:50:10;;;;;;;101.50;37.10;;;;;;;6.80;100.00;101929.00;5036774;28;20393;-86
2021/12/16 05:52:36;;;;;;;96.07;36.42;;;;;;;6.79;100.00;101932.56;5038258;28;20432;-85
2021/12/16 05:55:06;;;;;;;96.78;36.08;;;;;;;6.70;100.00;101927.16;5036536;28;20017;-85
2021/12/16 05:57:32;;;;;;;106.05;37.92;;;;;;;6.80;100.00;101944.94;5039041;28;20032;-84
2021/12/16 05:59:58;;;;;;;98.18;36.53;;;;;;;6.68;100.00;101945.69;5037175;28;20045;-84
2021/12/16 06:02:29;;;;;;;103.22;35.50;;;;;;;6.72;100.00;101951.03;5039352;28;20021;-85
2021/12/16 06:04:54;;;;;;;101.00;36.97;;;;;;;6.73;100.00;101943.09;5039528;28;20026;-85
2021/12/16 06:07:20;;;;;;;106.88;36.58;;;;;;;6.77;100.00;101941.38;5039350;28;20117;-86
2021/12/16 06:09:46;;;;;;;98.53;36.03;;;;;;;6.77;100.00;101944.94;5036928;28;20022;-86
2021/12/16 06:12:18;;;;;;;106.63;37.20;;;;;;;6.81;100.00;101946.75;5038478;28;20028;-86
2021/12/16 06:14:54;;;;;;;96.70;34.45;;;;;;;6.82;100.00;101952.94;5038028;28;20143;-85
2021/12/16 06:28:33;;;;;;;105.18;36.47;;;;;;;6.74;100.00;101982.06;5037361;28;20032;-85
2021/12/16 06:30:59;;;;;;;110.75;35.72;;;;;;;6.76;100.00;101980.31;5038187;28;20021;-86
2021/12/16 06:33:25;;;;;;;102.72;37.10;;;;;;;6.77;100.00;101979.44;5037547;28;20063;-86
2021/12/16 06:35:52;;;;;;;99.28;35.53;;;;;;;6.72;100.00;101981.16;5036815;28;20025;-85
2021/12/16 06:38:20;;;;;;;94.03;33.45;;;;;;;6.81;100.00;101972.41;5037825;28;20402;-84
2021/12/16 06:40:46;;;;;;;102.97;35.53;;;;;;;6.75;100.00;101988.25;5037870;28;20476;-86
2021/12/16 06:43:13;;;;;;;96.07;34.17;;;;;;;6.85;100.00;101992.81;5038488;28;20112;-86
2021/12/16 06:45:42;;;;;;;93.50;32.63;;;;;;;6.78;100.00;101991.81;5038529;28;20056;-86
2021/12/16 06:48:13;;;;;;;103.00;35.38;;;;;;;6.77;100.00;101987.41;5038300;28;20409;-86
2021/12/16 06:50:55;;;;;;;97.30;33.03;;;;;;;6.97;100.00;101999.16;5039796;28;20029;-87
2021/12/16 06:53:46;;;;;;;100.30;33.60;;;;;;;6.78;100.00;101997.13;5037796;28;20028;-87
2021/12/16 06:56:33;;;;;;;96.65;33.67;;;;;;;6.84;100.00;101999.00;5038133;28;20021;-85
2021/12/16 06:59:22;;;;;;;99.18;33.10;;;;;;;6.80;100.00;101995.38;5038228;28;20444;-86
2021/12/16 07:02:03;;;;;;;94.18;32.58;;;;;;;6.75;100.00;102002.41;5036642;28;20116;-87
2021/12/16 07:04:43;;;;;;;100.35;34.47;;;;;;;6.76;100.00;101993.56;5035667;28;20505;-86
2021/12/16 07:07:19;;;;;;;99.97;33.97;;;;;;;6.78;100.00;102002.44;5036954;28;20051;-87
2021/12/16 07:09:47;;;;;;;97.78;34.20;;;;;;;6.80;100.00;102006.00;5035312;28;20024;-88
2021/12/16 07:12:13;;;;;;;93.88;33.20;;;;;;;6.84;100.00;102003.41;5035143;28;20029;-87
2021/12/16 07:14:41;;;;;;;97.40;33.13;;;;;;;6.81;100.00;102001.59;5034454;28;20482;-87
2021/12/16 07:17:16;;;;;;;106.25;34.40;;;;;;;6.81;100.00;102010.47;5034916;28;20111;-88
2021/12/16 07:19:43;;;;;;;99.55;34.95;;;;;;;6.72;100.00;102005.03;5037288;28;20029;-88
2021/12/16 07:22:14;;;;;;;104.32;34.33;;;;;;;6.70;100.00;102012.97;5038522;28;20033;-89
2021/12/16 07:24:46;;;;;;;94.65;34.70;;;;;;;6.69;100.00;102020.91;5034581;28;20500;-89
2021/12/16 07:27:20;;;;;;;103.10;33.90;;;;;;;6.81;100.00;102021.09;5034966;28;20032;-89
2021/12/16 07:29:48;;;;;;;97.65;33.35;;;;;;;6.71;100.00;102027.13;5035606;28;20112;-88
2021/12/16 07:32:16;;;;;;;97.88;33.85;;;;;;;6.74;100.00;102035.16;5035074;28;20033;-90
2021/12/16 07:34:42;;;;;;;104.38;35.00;;;;;;;6.73;100.00;102032.44;5033888;28;20068;-89
2021/12/16 07:37:27;;;;;;;99.75;35.17;;;;;;;6.70;100.00;102041.31;5034340;28;20132;-88
2021/12/16 07:40:05;;;;;;;94.60;33.80;;;;;;;6.76;100.00;102054.66;5034965;28;20529;-89
2021/12/16 07:42:44;;;;;;;98.05;34.35;;;;;;;6.73;100.00;102057.25;5034834;28;20025;-89
2021/12/16 07:45:12;;;;;;;103.15;35.17;;;;;;;6.73;100.00;102051.94;5034138;28;20029;-89
2021/12/16 07:47:45;;;;;;;105.28;34.00;;;;;;;6.81;100.00;102063.56;5033841;28;20033;-87
2021/12/16 07:50:22;;;;;;;102.60;34.55;;;;;;;6.75;100.00;102067.91;5033871;28;20029;-88
2021/12/16 07:52:48;;;;;;;104.75;33.33;;;;;;;6.72;100.00;102078.47;5034627;28;20029;-87
2021/12/16 07:55:16;;;;;;;102.85;34.22;;;;;;;6.72;100.00;102070.50;5034470;28;20355;-88
2021/12/16 07:57:45;;;;;;;102.57;35.17;;;;;;;6.77;100.00;102079.44;5034521;28;20029;-87
2021/12/16 08:00:26;;;;;;;112.95;35.55;;;;;;;6.74;100.00;102082.03;5033709;28;20394;-87
2021/12/16 08:02:53;;;;;;;103.78;34.42;;;;;;;6.76;100.00;102081.19;5033945;28;20406;-88
2021/12/16 08:05:23;;;;;;;106.43;33.78;;;;;;;6.78;100.00;102090.06;5033384;28;20474;-88
2021/12/16 08:07:50;;;;;;;107.47;34.33;;;;;;;6.70;100.00;102089.09;5034459;28;20026;-88
2021/12/16 08:10:37;;;;;;;110.45;35.58;;;;;;;6.75;100.00;102082.06;5033351;28;20029;-88
2021/12/16 08:13:04;;;;;;;113.00;34.75;;;;;;;6.74;100.00;102096.22;5034116;28;20063;-88
2021/12/16 08:15:30;;;;;;;110.53;35.10;;;;;;;6.73;100.00;102091.75;5033602;28;20041;-88
2021/12/16 08:18:03;;;;;;;107.55;33.97;;;;;;;6.80;100.00;102098.94;5034365;28;20030;-89
2021/12/16 08:20:34;;;;;;;107.93;34.40;;;;;;;6.74;100.00;102098.88;5034826;28;20025;-88
2021/12/16 08:23:03;;;;;;;107.82;35.10;;;;;;;6.82;100.00;102099.88;5033750;28;20034;-88
2021/12/16 08:25:45;;;;;;;109.43;36.30;;;;;;;6.75;100.00;102103.28;5033180;28;20128;-87
2021/12/16 08:28:11;;;;;;;115.93;36.15;;;;;;;6.77;100.00;102108.66;5033811;28;20109;-88
2021/12/16 08:30:47;;;;;;;115.22;35.15;;;;;;;6.78;100.00;102113.97;5033212;28;20048;-87
2021/12/16 08:33:13;;;;;;;111.25;35.33;;;;;;;6.82;100.00;102113.16;5032877;28;20033;-88
2021/12/16 08:35:51;;;;;;;110.30;37.00;;;;;;;6.75;100.00;102108.59;5033039;28;20398;-86
2021/12/16 08:38:27;;;;;;;121.78;37.75;;;;;;;6.78;100.00;102113.97;5035770;28;20040;-88
2021/12/16 08:41:09;;;;;;;149.40;38.58;;;;;;;6.74;100.00;102104.19;5033738;28;20029;-88
2021/12/16 08:43:44;;;;;;;137.30;37.97;;;;;;;6.73;100.00;102102.38;5034024;28;20111;-88
2021/12/16 08:46:21;;;;;;;126.18;38.50;;;;;;;6.90;100.00;102096.44;5033425;28;20033;-87
2021/12/16 08:48:48;;;;;;;143.70;40.72;;;;;;;6.77;100.00;102098.94;5033536;28;20385;-89
2021/12/16 08:51:20;;;;;;;140.25;39.75;;;;;;;6.88;100.00;102107.03;5033346;28;20052;-88
2021/12/16 08:53:45;;;;;;;131.40;38.70;;;;;;;6.88;100.00;102117.66;5034121;28;20026;-87
2021/12/16 08:56:14;;;;;;;132.85;38.33;;;;;;;6.94;100.00;102103.56;5033819;28;20025;-87
2021/12/16 08:58:40;;;;;;;155.73;41.58;;;;;;;6.82;100.00;102097.22;5034745;28;20037;-87
2021/12/16 09:01:16;;;;;;;140.60;42.17;;;;;;;6.93;100.00;102093.84;5032705;28;20495;-88
2021/12/16 09:03:48;;;;;;;157.43;42.03;;;;;;;6.87;100.00;102105.25;5033561;28;20470;-87
2021/12/16 09:06:14;;;;;;;143.32;40.58;;;;;;;6.93;100.00;102093.84;5033310;28;20021;-87
2021/12/16 09:08:40;;;;;;;154.40;40.15;;;;;;;6.93;100.00;102093.84;5032408;28;20479;-88
2021/12/16 09:11:11;;;;;;;173.05;42.03;;;;;;;6.89;100.00;102090.25;5033155;28;20079;-87
2021/12/16 09:16:13;;;;;;;167.15;41.28;;;;;;;7.01;100.00;102092.16;5040945;22;20541;-74
2021/12/16 09:18:41;;;;;;;;;;;;;;;7.04;100.00;102105.50;5033513;28;20558;-74
2021/12/16 09:21:13;;;;;;;155.27;41.45;;;;;;;7.10;100.00;102109.13;5032622;28;20388;-74
2021/12/16 09:23:43;;;;;;;151.52;38.72;;;;;;;7.15;100.00;102112.72;5033273;28;20033;-74
2021/12/16 09:26:09;;;;;;;142.93;40.03;;;;;;;7.16;100.00;102103.91;5033018;28;20449;-74
2021/12/16 09:28:36;;;;;;;154.68;37.85;;;;;;;7.16;100.00;102109.22;5032883;28;20022;-74
2021/12/16 09:31:04;;;;;;;138.48;38.10;;;;;;;7.22;100.00;102116.34;5032994;28;20075;-74
2021/12/16 09:33:30;;;;;;;114.35;35.78;;;;;;;7.30;100.00;102116.44;5033022;28;20048;-74
2021/12/16 09:35:59;;;;;;;129.82;36.47;;;;;;;7.20;100.00;102119.00;5033238;28;20478;-74
2021/12/16 09:38:27;;;;;;;115.80;35.67;;;;;;;7.24;100.00;102131.44;5033106;28;20033;-74
2021/12/16 09:40:55;;;;;;;118.95;34.40;;;;;;;7.22;100.00;102133.19;5032911;28;20074;-74
2021/12/16 09:43:25;;;;;;;100.72;32.20;;;;;;;7.25;100.00;102141.22;5032927;28;20105;-74
2021/12/16 09:45:53;;;;;;;108.18;32.83;;;;;;;7.29;100.00;102149.22;5032928;28;20398;-73
2021/12/16 09:48:20;;;;;;;95.03;30.67;;;;;;;7.24;100.00;102146.50;5032801;28;20022;-74
2021/12/16 09:50:45;;;;;;;98.80;31.65;;;;;;;7.34;100.00;102136.91;5032844;28;20494;-74
2021/12/16 09:53:12;;;;;;;86.00;30.75;;;;;;;7.29;100.00;102141.25;5033038;28;20040;-74
2021/12/16 09:55:38;;;;;;;84.75;30.58;;;;;;;7.38;100.00;102146.69;5032823;28;20033;-74
2021/12/16 09:58:05;;;;;;;85.63;29.25;;;;;;;7.43;100.00;102152.97;5032993;28;20389;-73
2021/12/16 10:00:32;;;;;;;84.03;30.02;;;;;;;7.34;100.00;102161.72;5031423;28;20246;-74
2021/12/16 10:03:01;;;;;;;84.95;29.38;;;;;;;7.40;100.00;102152.91;5032717;28;20528;-74
2021/12/16 10:05:27;;;;;;;93.07;30.52;;;;;;;7.42;100.00;102159.13;5031715;28;20033;-74
2021/12/16 10:07:53;;;;;;;86.53;29.80;;;;;;;7.41;100.00;102167.09;5032874;28;20049;-74
2021/12/16 10:10:24;;;;;;;85.78;29.90;;;;;;;7.39;100.00;102161.78;5031341;28;20064;-74
2021/12/16 10:12:51;;;;;;;90.25;29.85;;;;;;;7.36;100.00;102167.03;5031455;28;20030;-74
2021/12/16 10:18:15;;;;;;;93.38;32.15;;;;;;;7.38;100.00;102175.91;5032968;28;20033;-74
2021/12/16 10:20:51;;;;;;;99.15;32.70;;;;;;;7.35;100.00;102171.47;5033131;28;20435;-74
2021/12/16 10:23:24;;;;;;;99.57;32.00;;;;;;;7.32;100.00;102178.50;5032793;28;20022;-74
2021/12/16 10:25:54;;;;;;;103.57;33.90;;;;;;;7.33;100.00;102182.94;5032862;28;20029;-74
2021/12/16 10:28:23;;;;;;;92.60;32.75;;;;;;;7.43;100.00;102184.84;5032645;28;20108;-74
2021/12/16 10:31:11;;;;;;;104.65;33.17;;;;;;;7.36;100.00;102183.00;5032461;28;20501;-74
2021/12/16 10:33:47;;;;;;;97.47;32.85;;;;;;;7.40;100.00;102179.50;5032722;28;20449;-74
2021/12/16 10:36:21;;;;;;;91.78;31.27;;;;;;;7.34;100.00;102174.09;5034617;28;20032;-74
2021/12/16 10:38:59;;;;;;;;;;;;;;;7.41;100.00;102178.63;5036305;28;20025;-74
2021/12/16 10:41:32;;;;;;;104.45;34.13;;;;;;;7.41;100.00;102183.94;5035721;28;19909;-74
2021/12/16 10:44:17;;;;;;;101.13;35.43;;;;;;;7.45;100.00;102188.41;5035954;28;20044;-74
2021/12/16 10:46:50;;;;;;;102.18;35.03;;;;;;;7.34;100.00;102190.94;5035341;28;20021;-74
2021/12/16 10:49:24;;;;;;;104.07;34.40;;;;;;;7.35;100.00;102191.81;5035666;28;20041;-74
2021/12/16 10:51:54;;;;;;;105.38;33.40;;;;;;;7.33;100.00;102196.22;5035919;28;20030;-74
2021/12/16 10:54:30;;;;;;;108.15;33.33;;;;;;;7.33;100.00;102198.88;5034260;28;20417;-74
2021/12/16 10:57:20;;;;;;;107.82;33.92;;;;;;;7.38;100.00;102205.16;5035572;28;20497;-74
2021/12/16 10:59:47;;;;;;;96.60;31.42;;;;;;;7.37;100.00;102211.38;5035515;28;20071;-74
2021/12/16 11:02:15;;;;;;;94.93;29.55;;;;;;;7.37;100.00;102206.06;5034267;28;20094;-74
2021/12/16 11:04:43;;;;;;;95.80;31.10;;;;;;;7.36;100.00;102201.59;5035476;28;20025;-74
2021/12/16 11:07:31;;;;;;;98.03;31.10;;;;;;;7.32;100.00;102197.13;5035678;28;20494;-74
2021/12/16 11:10:02;;;;;;;104.50;32.05;;;;;;;7.31;100.00;102197.97;5033996;28;20490;-74
2021/12/16 11:12:45;;;;;;;91.93;30.63;;;;;;;7.36;100.00;102196.28;5035323;28;20029;-74
2021/12/16 11:15:10;;;;;;;99.57;33.22;;;;;;;7.33;100.00;102185.59;5035184;28;20064;-74
2021/12/16 11:17:43;;;;;;;104.72;33.08;;;;;;;7.34;100.00;102188.28;5035214;28;20049;-74
2021/12/16 11:20:11;;;;;;;110.28;33.70;;;;;;;7.34;100.00;102184.75;5035031;28;20021;-74
2021/12/16 11:22:38;;;;;;;95.18;31.75;;;;;;;7.42;100.00;102190.16;5035376;28;20025;-74
2021/12/16 11:25:12;;;;;;;102.38;32.17;;;;;;;7.42;100.00;102188.38;5035028;28;20390;-74
2021/12/16 11:27:37;;;;;;;;;;;;;;;7.33;100.00;102196.22;5035648;28;20024;-74
2021/12/16 11:30:46;;;;;;;98.10;31.50;;;;;;;7.42;100.00;102199.00;5034958;28;19913;-74
2021/12/16 11:33:14;;;;;;;100.85;32.45;;;;;;;7.33;100.00;102198.88;5033639;28;20037;-74
2021/12/16 11:35:40;;;;;;;105.93;33.50;;;;;;;7.33;100.00;102201.53;5034822;28;20393;-74
2021/12/16 11:38:13;;;;;;;106.30;34.22;;;;;;;7.28;100.00;102206.78;5034721;28;20029;-74
2021/12/16 11:40:56;;;;;;;100.80;34.80;;;;;;;7.30;100.00;102209.47;5034079;28;20389;-74
2021/12/16 11:43:36;;;;;;;109.00;33.95;;;;;;;7.34;100.00;102206.91;5034918;28;20029;-74
2021/12/16 11:46:18;;;;;;;100.95;31.80;;;;;;;7.36;100.00;102204.25;5075657;23;20079;-85
2021/12/16 11:48:43;;;;;;;107.68;32.90;;;;;;;7.38;100.00;102207.81;5039773;28;20056;-84
2021/12/16 11:51:12;;;;;;;103.53;31.75;;;;;;;7.44;100.00;102207.03;5038304;28;20026;-83
2021/12/16 11:53:50;;;;;;;106.15;31.83;;;;;;;7.44;100.00;102207.91;5037431;28;20066;-86
2021/12/16 11:56:31;;;;;;;107.35;32.28;;;;;;;7.44;100.00;102210.56;5038473;28;20053;-83
2021/12/16 11:58:56;;;;;;;116.75;31.50;;;;;;;7.42;100.00;102214.94;5039771;28;20025;-84
2021/12/16 12:01:23;;;;;;;109.03;31.85;;;;;;;7.38;100.00;102214.03;5039628;28;20028;-83
2021/12/16 12:03:49;;;;;;;111.15;34.45;;;;;;;7.40;100.00;102211.38;5039740;28;20078;-83
2021/12/16 12:06:26;;;;;;;107.70;33.00;;;;;;;7.41;100.00;102202.56;5039878;28;20036;-83
2021/12/16 12:08:59;;;;;;;108.47;33.72;;;;;;;7.48;100.00;102208.84;5039732;28;20493;-85
2021/12/16 12:11:31;;;;;;;115.45;34.10;;;;;;;7.55;100.00;102207.19;5039563;28;20084;-85
2021/12/16 12:14:07;;;;;;;103.47;31.90;;;;;;;7.54;100.00;102205.38;5036745;28;20033;-86
2021/12/16 12:16:43;;;;;;;97.45;31.40;;;;;;;7.59;100.00;102204.56;5037016;28;20123;-86
2021/12/16 12:19:19;;;;;;;100.80;31.10;;;;;;;7.57;100.00;102202.78;5040170;28;20025;-83
2021/12/16 12:21:56;;;;;;;105.05;33.45;;;;;;;7.59;100.00;102198.34;5040039;28;20041;-85
2021/12/16 12:24:34;;;;;;;107.47;33.00;;;;;;;7.58;100.00;102199.22;5039543;28;20036;-86
2021/12/16 12:27:07;;;;;;;100.32;32.75;;;;;;;7.68;100.00;102211.75;5038662;28;20444;-86
2021/12/16 12:29:52;;;;;;;113.05;32.25;;;;;;;7.58;100.00;102210.75;5034469;28;20095;-85
2021/12/16 12:32:25;;;;;;;95.15;30.38;;;;;;;7.59;100.00;102214.31;5036765;28;20110;-84
2021/12/16 12:35:13;;;;;;;103.65;32.92;;;;;;;7.60;100.00;102218.78;5037242;28;20025;-85
2021/12/16 12:37:42;;;;;;;103.50;32.90;;;;;;;7.63;100.00;102209.94;5038470;28;20115;-85
2021/12/16 12:40:19;;;;;;;99.80;32.08;;;;;;;7.58;100.00;102213.41;5038578;28;20092;-84
2021/12/16 12:42:47;;;;;;;99.38;32.22;;;;;;;7.62;100.00;102217.00;5036998;28;20029;-85
2021/12/16 12:45:19;;;;;;;105.80;32.75;;;;;;;7.61;100.00;102215.22;5038898;28;20025;-84
2021/12/16 12:47:52;;;;;;;93.95;31.05;;;;;;;7.59;100.00;102224.94;5038156;28;20079;-84
2021/12/16 12:50:22;;;;;;;;;;;;;;;7.59;100.00;102216.97;5039143;28;20021;-84
2021/12/16 12:52:51;;;;;;;101.88;32.58;;;;;;;7.55;100.00;102218.69;5034462;28;20357;-84
2021/12/16 12:55:22;;;;;;;100.00;33.20;;;;;;;7.60;100.00;102224.94;5034557;28;20022;-85
2021/12/16 12:57:47;;;;;;;96.88;31.55;;;;;;;7.61;100.00;102220.53;5038818;28;20022;-84
2021/12/16 13:00:28;;;;;;;105.00;32.67;;;;;;;7.62;100.00;102218.78;5038960;28;20031;-85
2021/12/16 13:03:11;;;;;;;100.70;33.08;;;;;;;7.62;100.00;102216.13;5037495;28;20021;-85
2021/12/16 13:05:38;;;;;;;90.97;30.15;;;;;;;7.69;100.00;102218.88;5033397;28;20022;-83
2021/12/16 13:08:09;;;;;;;99.97;32.08;;;;;;;7.65;100.00;102211.75;5035392;28;20179;-84
2021/12/16 13:10:42;;;;;;;97.07;30.52;;;;;;;7.69;100.00;102218.88;5035522;28;20027;-85
2021/12/16 13:13:31;;;;;;;94.63;31.73;;;;;;;7.73;100.00;102208.28;5036016;28;20113;-83
2021/12/16 13:16:41;;;;;;;96.28;29.90;;;;;;;7.71;100.00;102211.81;5037559;28;20029;-84
2021/12/16 13:28:35;;;;;;;98.47;32.47;;;;;;;7.78;100.00;102206.59;5038823;28;20567;-85
2021/12/16 13:31:06;;;;;;;100.78;32.05;;;;;;;7.76;100.00;102205.66;5038941;28;20030;-85
2021/12/16 13:33:40;;;;;;;90.63;29.80;;;;;;;7.70;100.00;102199.41;5037328;28;20031;-85
2021/12/16 13:36:27;;;;;;;79.75;27.70;;;;;;;7.73;100.00;102201.19;5038521;28;20021;-85
2021/12/16 13:38:55;;;;;;;79.32;29.02;;;;;;;7.80;100.00;102188.88;5037241;28;20056;-85
2021/12/16 13:41:25;;;;;;;87.07;30.02;;;;;;;7.73;100.00;102187.00;5035695;28;20441;-84
2021/12/16 13:44:09;;;;;;;88.15;29.85;;;;;;;7.81;100.00;102186.22;5034648;28;20033;-84
2021/12/16 13:47:04;;;;;;;;;;;;;;;7.77;100.00;102184.41;5035885;28;20477;-82
2021/12/16 13:58:40;;;;;;;87.82;28.73;;;;;;;7.92;100.00;102182.78;5041826;28;20402;-84
2021/12/16 14:01:28;;;;;;;89.57;30.38;;;;;;;7.86;100.00;102178.28;5041527;28;20105;-85
2021/12/16 14:04:13;;;;;;;78.30;29.00;;;;;;;7.84;100.00;102177.38;5039040;28;20033;-85